createdAt,value
2019-05-15T00:00:13.000Z,26
2019-05-15T00:01:13.000Z,26
2019-05-15T00:02:13.000Z,26
2019-05-15T00:03:13.000Z,26
2019-05-15T00:04:13.000Z,26
2019-05-15T00:05:13.000Z,26
2019-05-15T00:06:13.000Z,26
2019-05-15T00:07:13.000Z,26
2019-05-15T00:08:13.000Z,26
2019-05-15T00:09:13.000Z,26
2019-05-15T00:10:13.000Z,26
2019-05-15T00:11:13.000Z,26
2019-05-15T00:12:13.000Z,26
2019-05-15T00:14:13.000Z,26
2019-05-15T00:15:13.000Z,26
2019-05-15T00:16:13.000Z,26
2019-05-15T00:17:13.000Z,26
2019-05-15T00:18:13.000Z,26
2019-05-15T00:19:13.000Z,26
2019-05-15T00:20:13.000Z,26
2019-05-15T00:21:13.000Z,26
2019-05-15T00:22:13.000Z,26
2019-05-15T00:24:13.000Z,25
2019-05-15T00:25:13.000Z,25
2019-05-15T00:26:13.000Z,25
2019-05-15T00:27:13.000Z,25
2019-05-15T00:28:13.000Z,25
2019-05-15T00:29:13.000Z,26
2019-05-15T00:30:13.000Z,25
2019-05-15T00:31:13.000Z,26
2019-05-15T00:32:13.000Z,26
2019-05-15T00:33:13.000Z,26
2019-05-15T00:34:13.000Z,26
2019-05-15T00:35:13.000Z,26
2019-05-15T00:36:13.000Z,26
2019-05-15T00:37:13.000Z,26
2019-05-15T00:38:13.000Z,26
2019-05-15T00:39:13.000Z,26
2019-05-15T00:40:13.000Z,26
2019-05-15T00:41:13.000Z,26
2019-05-15T00:42:13.000Z,26
2019-05-15T00:43:13.000Z,26
2019-05-15T00:44:13.000Z,26
2019-05-15T00:45:13.000Z,26
2019-05-15T00:46:13.000Z,26
2019-05-15T00:47:13.000Z,26
2019-05-15T00:48:13.000Z,26
2019-05-15T00:49:13.000Z,26
2019-05-15T00:50:13.000Z,26
2019-05-15T00:51:13.000Z,26
2019-05-15T00:52:13.000Z,26
2019-05-15T00:53:13.000Z,26
2019-05-15T00:54:13.000Z,26
2019-05-15T00:56:13.000Z,26
2019-05-15T00:58:13.000Z,26
2019-05-15T00:59:13.000Z,26
2019-05-15T01:00:13.000Z,26
2019-05-15T01:01:13.000Z,26
2019-05-15T01:02:13.000Z,26
2019-05-15T01:03:13.000Z,26
2019-05-15T01:04:13.000Z,26
2019-05-15T01:05:13.000Z,26
2019-05-15T01:06:13.000Z,26
2019-05-15T01:07:13.000Z,26
2019-05-15T01:09:13.000Z,26
2019-05-15T01:10:13.000Z,26
2019-05-15T01:11:13.000Z,26
2019-05-15T01:12:13.000Z,26
2019-05-15T01:13:13.000Z,26
2019-05-15T01:14:13.000Z,26
2019-05-15T01:16:13.000Z,26
2019-05-15T01:18:13.000Z,26
2019-05-15T01:19:13.000Z,26
2019-05-15T01:20:13.000Z,26
2019-05-15T01:21:13.000Z,26
2019-05-15T01:22:13.000Z,26
2019-05-15T01:23:13.000Z,26
2019-05-15T01:24:13.000Z,26
2019-05-15T01:26:13.000Z,26
2019-05-15T01:27:13.000Z,26
2019-05-15T01:29:13.000Z,26
2019-05-15T01:30:13.000Z,26
2019-05-15T01:31:13.000Z,26
2019-05-15T01:32:13.000Z,26
2019-05-15T01:34:13.000Z,26
2019-05-15T01:35:13.000Z,26
2019-05-15T01:37:13.000Z,26
2019-05-15T01:38:13.000Z,26
2019-05-15T01:39:13.000Z,26
2019-05-15T01:40:13.000Z,26
2019-05-15T01:41:13.000Z,26
2019-05-15T01:42:13.000Z,26
2019-05-15T01:43:13.000Z,26
2019-05-15T01:44:13.000Z,26
2019-05-15T01:45:13.000Z,26
2019-05-15T01:46:13.000Z,26
2019-05-15T01:47:13.000Z,26
2019-05-15T01:48:13.000Z,26
2019-05-15T01:49:13.000Z,26
2019-05-15T01:50:13.000Z,26
2019-05-15T01:51:13.000Z,26
2019-05-15T01:52:13.000Z,26
2019-05-15T01:53:13.000Z,26
2019-05-15T01:54:13.000Z,26
2019-05-15T01:55:13.000Z,26
2019-05-15T01:56:13.000Z,26
2019-05-15T01:57:13.000Z,26
2019-05-15T01:58:13.000Z,26
2019-05-15T02:00:13.000Z,26
2019-05-15T02:01:13.000Z,26
2019-05-15T02:03:13.000Z,26
2019-05-15T02:04:13.000Z,26
2019-05-15T02:05:13.000Z,26
2019-05-15T02:06:13.000Z,26
2019-05-15T02:07:13.000Z,26
2019-05-15T02:08:13.000Z,26
2019-05-15T02:09:13.000Z,26
2019-05-15T02:10:13.000Z,26
2019-05-15T02:11:13.000Z,26
2019-05-15T02:13:13.000Z,26
2019-05-15T02:14:13.000Z,26
2019-05-15T02:15:13.000Z,26
2019-05-15T02:17:13.000Z,26
2019-05-15T02:18:13.000Z,26
2019-05-15T02:19:13.000Z,26
2019-05-15T02:20:13.000Z,26
2019-05-15T02:21:13.000Z,26
2019-05-15T02:22:13.000Z,26
2019-05-15T02:23:13.000Z,26
2019-05-15T02:24:13.000Z,26
2019-05-15T02:25:13.000Z,26
2019-05-15T02:26:13.000Z,26
2019-05-15T02:27:13.000Z,26
2019-05-15T02:28:13.000Z,26
2019-05-15T02:29:13.000Z,26
2019-05-15T02:30:13.000Z,26
2019-05-15T02:31:13.000Z,26
2019-05-15T02:33:13.000Z,26
2019-05-15T02:34:13.000Z,26
2019-05-15T02:35:13.000Z,26
2019-05-15T02:36:13.000Z,26
2019-05-15T02:38:13.000Z,26
2019-05-15T02:39:13.000Z,26
2019-05-15T02:40:13.000Z,26
2019-05-15T02:41:13.000Z,26
2019-05-15T02:42:13.000Z,26
2019-05-15T02:43:13.000Z,26
2019-05-15T02:44:13.000Z,26
2019-05-15T02:45:13.000Z,26
2019-05-15T02:46:13.000Z,26
2019-05-15T02:47:13.000Z,26
2019-05-15T02:48:13.000Z,26
2019-05-15T02:49:13.000Z,26
2019-05-15T02:51:13.000Z,26
2019-05-15T02:52:13.000Z,26
2019-05-15T02:54:13.000Z,26
2019-05-15T02:55:13.000Z,26
2019-05-15T02:56:13.000Z,26
2019-05-15T02:57:13.000Z,26
2019-05-15T02:58:13.000Z,26
2019-05-15T02:59:13.000Z,26
2019-05-15T03:00:13.000Z,26
2019-05-15T03:01:13.000Z,26
2019-05-15T03:02:13.000Z,26
2019-05-15T03:04:13.000Z,26
2019-05-15T03:05:13.000Z,26
2019-05-15T03:07:13.000Z,26
2019-05-15T03:08:13.000Z,26
2019-05-15T03:09:13.000Z,26
2019-05-15T03:10:13.000Z,26
2019-05-15T03:11:13.000Z,26
2019-05-15T03:12:13.000Z,26
2019-05-15T03:13:13.000Z,26
2019-05-15T03:14:13.000Z,26
2019-05-15T03:15:13.000Z,26
2019-05-15T03:16:13.000Z,26
2019-05-15T03:17:13.000Z,26
2019-05-15T03:18:13.000Z,26
2019-05-15T03:19:13.000Z,26
2019-05-15T03:20:13.000Z,26
2019-05-15T03:21:13.000Z,26
2019-05-15T03:22:13.000Z,27
2019-05-15T03:23:13.000Z,27
2019-05-15T03:24:13.000Z,27
2019-05-15T03:25:13.000Z,27
2019-05-15T03:26:13.000Z,26
2019-05-15T03:27:13.000Z,26
2019-05-15T03:28:13.000Z,26
2019-05-15T03:29:13.000Z,27
2019-05-15T03:30:13.000Z,27
2019-05-15T03:31:13.000Z,26
2019-05-15T03:32:13.000Z,26
2019-05-15T03:33:13.000Z,26
2019-05-15T03:34:13.000Z,26
2019-05-15T03:35:13.000Z,26
2019-05-15T03:36:13.000Z,26
2019-05-15T03:37:13.000Z,27
2019-05-15T03:38:13.000Z,27
2019-05-15T03:39:13.000Z,27
2019-05-15T03:40:13.000Z,27
2019-05-15T03:41:13.000Z,27
2019-05-15T03:42:13.000Z,27
2019-05-15T03:43:13.000Z,27
2019-05-15T03:44:13.000Z,27
2019-05-15T03:45:13.000Z,27
2019-05-15T03:46:13.000Z,27
2019-05-15T03:47:13.000Z,27
2019-05-15T03:48:13.000Z,27
2019-05-15T03:49:13.000Z,27
2019-05-15T03:50:13.000Z,27
2019-05-15T03:52:13.000Z,26
2019-05-15T03:53:13.000Z,27
2019-05-15T03:55:13.000Z,26
2019-05-15T03:56:13.000Z,26
2019-05-15T03:58:13.000Z,26
2019-05-15T03:59:13.000Z,26
2019-05-15T04:00:13.000Z,27
2019-05-15T04:01:13.000Z,26
2019-05-15T04:02:13.000Z,26
2019-05-15T04:03:13.000Z,26
2019-05-15T04:05:13.000Z,26
2019-05-15T04:06:13.000Z,26
2019-05-15T04:07:13.000Z,26
2019-05-15T04:08:13.000Z,26
2019-05-15T04:09:13.000Z,26
2019-05-15T04:10:13.000Z,26
2019-05-15T04:11:13.000Z,26
2019-05-15T04:12:13.000Z,26
2019-05-15T04:13:13.000Z,26
2019-05-15T04:14:13.000Z,26
2019-05-15T04:15:13.000Z,26
2019-05-15T04:16:13.000Z,26
2019-05-15T04:17:13.000Z,26
2019-05-15T04:18:14.000Z,26
2019-05-15T04:20:14.000Z,26
2019-05-15T04:21:14.000Z,26
2019-05-15T04:22:14.000Z,26
2019-05-15T04:23:14.000Z,26
2019-05-15T04:24:14.000Z,26
2019-05-15T04:25:14.000Z,26
2019-05-15T04:26:14.000Z,26
2019-05-15T04:27:14.000Z,27
2019-05-15T04:28:14.000Z,27
2019-05-15T04:29:14.000Z,27
2019-05-15T04:30:14.000Z,28
2019-05-15T04:31:14.000Z,28
2019-05-15T04:32:14.000Z,28
2019-05-15T04:33:14.000Z,28
2019-05-15T04:35:14.000Z,28
2019-05-15T04:36:14.000Z,28
2019-05-15T04:37:14.000Z,28
2019-05-15T04:38:14.000Z,28
2019-05-15T04:40:14.000Z,28
2019-05-15T04:41:14.000Z,28
2019-05-15T04:42:14.000Z,29
2019-05-15T04:43:14.000Z,29
2019-05-15T04:44:14.000Z,29
2019-05-15T04:45:14.000Z,29
2019-05-15T04:46:14.000Z,29
2019-05-15T04:47:14.000Z,29
2019-05-15T04:49:14.000Z,29
2019-05-15T04:50:14.000Z,29
2019-05-15T04:51:14.000Z,29
2019-05-15T04:53:14.000Z,29
2019-05-15T04:54:14.000Z,29
2019-05-15T04:55:14.000Z,29
2019-05-15T04:56:14.000Z,29
2019-05-15T04:57:14.000Z,29
2019-05-15T04:58:14.000Z,29
2019-05-15T04:59:14.000Z,29
2019-05-15T05:00:14.000Z,29
2019-05-15T05:01:14.000Z,29
2019-05-15T05:02:14.000Z,29
2019-05-15T05:03:14.000Z,29
2019-05-15T05:05:14.000Z,29
2019-05-15T05:06:14.000Z,29
2019-05-15T05:07:14.000Z,29
2019-05-15T05:08:14.000Z,29
2019-05-15T05:09:14.000Z,29
2019-05-15T05:10:14.000Z,29
2019-05-15T05:11:14.000Z,29
2019-05-15T05:12:14.000Z,29
2019-05-15T05:13:14.000Z,29
2019-05-15T05:14:14.000Z,29
2019-05-15T05:15:14.000Z,29
2019-05-15T05:16:14.000Z,28
2019-05-15T05:17:14.000Z,28
2019-05-15T05:18:14.000Z,28
2019-05-15T05:19:14.000Z,28
2019-05-15T05:20:14.000Z,28
2019-05-15T05:21:14.000Z,28
2019-05-15T05:22:13.000Z,28
2019-05-15T05:23:13.000Z,28
2019-05-15T05:24:13.000Z,28
2019-05-15T05:25:13.000Z,28
2019-05-15T05:26:13.000Z,28
2019-05-15T05:27:13.000Z,28
2019-05-15T05:28:13.000Z,28
2019-05-15T05:29:13.000Z,28
2019-05-15T05:30:13.000Z,28
2019-05-15T05:31:13.000Z,28
2019-05-15T05:32:13.000Z,28
2019-05-15T05:33:13.000Z,28
2019-05-15T05:35:13.000Z,28
2019-05-15T05:36:13.000Z,28
2019-05-15T05:37:13.000Z,28
2019-05-15T05:38:13.000Z,28
2019-05-15T05:39:13.000Z,28
2019-05-15T05:40:13.000Z,28
2019-05-15T05:41:13.000Z,28
2019-05-15T05:42:13.000Z,28
2019-05-15T05:43:13.000Z,28
2019-05-15T05:44:13.000Z,27
2019-05-15T05:45:13.000Z,27
2019-05-15T05:47:13.000Z,27
2019-05-15T05:48:13.000Z,27
2019-05-15T05:50:13.000Z,27
2019-05-15T05:51:13.000Z,27
2019-05-15T05:52:13.000Z,27
2019-05-15T05:53:13.000Z,27
2019-05-15T05:54:13.000Z,27
2019-05-15T05:55:13.000Z,27
2019-05-15T05:56:13.000Z,27
2019-05-15T05:58:13.000Z,27
2019-05-15T05:59:13.000Z,27
2019-05-15T06:00:13.000Z,27
2019-05-15T06:01:13.000Z,27
2019-05-15T06:02:13.000Z,27
2019-05-15T06:03:13.000Z,27
2019-05-15T06:04:13.000Z,27
2019-05-15T06:05:13.000Z,27
2019-05-15T06:06:13.000Z,27
2019-05-15T06:07:13.000Z,27
2019-05-15T06:08:13.000Z,27
2019-05-15T06:09:13.000Z,27
2019-05-15T06:10:13.000Z,27
2019-05-15T06:11:13.000Z,27
2019-05-15T06:12:13.000Z,27
2019-05-15T06:13:13.000Z,27
2019-05-15T06:14:13.000Z,27
2019-05-15T06:16:13.000Z,27
2019-05-15T06:17:13.000Z,27
2019-05-15T06:18:13.000Z,27
2019-05-15T06:19:13.000Z,26
2019-05-15T06:20:13.000Z,26
2019-05-15T06:21:13.000Z,26
2019-05-15T06:22:13.000Z,26
2019-05-15T06:23:13.000Z,26
2019-05-15T06:24:13.000Z,26
2019-05-15T06:25:13.000Z,26
2019-05-15T06:26:13.000Z,26
2019-05-15T06:27:13.000Z,26
2019-05-15T06:28:13.000Z,26
2019-05-15T06:29:13.000Z,26
2019-05-15T06:30:13.000Z,26
2019-05-15T06:32:13.000Z,26
2019-05-15T06:33:13.000Z,26
2019-05-15T06:34:13.000Z,26
2019-05-15T06:35:13.000Z,26
2019-05-15T06:36:13.000Z,26
2019-05-15T06:37:13.000Z,26
2019-05-15T06:38:13.000Z,26
2019-05-15T06:39:13.000Z,25
2019-05-15T06:40:13.000Z,25
2019-05-15T06:41:13.000Z,25
2019-05-15T06:42:13.000Z,25
2019-05-15T06:44:13.000Z,25
2019-05-15T06:45:13.000Z,25
2019-05-15T06:46:13.000Z,25
2019-05-15T06:47:13.000Z,25
2019-05-15T06:48:13.000Z,25
2019-05-15T06:50:13.000Z,25
2019-05-15T06:51:13.000Z,25
2019-05-15T06:52:13.000Z,25
2019-05-15T06:54:13.000Z,25
2019-05-15T06:55:13.000Z,25
2019-05-15T06:56:13.000Z,26
2019-05-15T06:57:13.000Z,25
2019-05-15T06:58:13.000Z,25
2019-05-15T06:59:13.000Z,25
2019-05-15T07:00:13.000Z,25
2019-05-15T07:01:13.000Z,25
2019-05-15T07:02:13.000Z,25
2019-05-15T07:03:13.000Z,25
2019-05-15T07:04:13.000Z,25
2019-05-15T07:05:13.000Z,25
2019-05-15T07:06:13.000Z,25
2019-05-15T07:08:13.000Z,25
2019-05-15T07:09:13.000Z,25
2019-05-15T07:10:13.000Z,25
2019-05-15T07:11:13.000Z,25
2019-05-15T07:12:13.000Z,25
2019-05-15T07:13:13.000Z,25
2019-05-15T07:14:13.000Z,25
2019-05-15T07:15:13.000Z,25
2019-05-15T07:16:13.000Z,25
2019-05-15T07:18:13.000Z,25
2019-05-15T07:19:13.000Z,25
2019-05-15T07:20:13.000Z,25
2019-05-15T07:21:13.000Z,25
2019-05-15T07:23:13.000Z,25
2019-05-15T07:24:13.000Z,25
2019-05-15T07:25:13.000Z,25
2019-05-15T07:26:13.000Z,25
2019-05-15T07:27:13.000Z,25
2019-05-15T07:28:13.000Z,25
2019-05-15T07:29:13.000Z,25
2019-05-15T07:30:13.000Z,25
2019-05-15T07:31:13.000Z,24
2019-05-15T07:32:13.000Z,24
2019-05-15T07:33:13.000Z,24
2019-05-15T07:34:13.000Z,24
2019-05-15T07:35:13.000Z,24
2019-05-15T07:36:13.000Z,24
2019-05-15T07:37:13.000Z,24
2019-05-15T07:38:13.000Z,24
2019-05-15T07:39:13.000Z,24
2019-05-15T07:40:13.000Z,24
2019-05-15T07:42:13.000Z,24
2019-05-15T07:43:13.000Z,24
2019-05-15T07:44:13.000Z,24
2019-05-15T07:45:13.000Z,24
2019-05-15T07:46:13.000Z,23
2019-05-15T07:47:13.000Z,24
2019-05-15T07:48:13.000Z,24
2019-05-15T07:49:13.000Z,23
2019-05-15T07:50:13.000Z,23
2019-05-15T07:51:13.000Z,23
2019-05-15T07:52:13.000Z,23
2019-05-15T07:53:13.000Z,23
2019-05-15T07:54:13.000Z,23
2019-05-15T07:55:13.000Z,23
2019-05-15T07:56:13.000Z,23
2019-05-15T07:57:13.000Z,23
2019-05-15T07:58:13.000Z,23
2019-05-15T07:59:13.000Z,23
2019-05-15T08:00:13.000Z,23
2019-05-15T08:01:13.000Z,23
2019-05-15T08:02:13.000Z,23
2019-05-15T08:03:13.000Z,23
2019-05-15T08:04:13.000Z,23
2019-05-15T08:05:13.000Z,23
2019-05-15T08:06:13.000Z,23
2019-05-15T08:07:13.000Z,23
2019-05-15T08:08:13.000Z,23
2019-05-15T08:10:13.000Z,23
2019-05-15T08:48:00.000Z,23
2019-05-15T08:49:00.000Z,23
2019-05-15T08:50:00.000Z,24
2019-05-15T08:51:00.000Z,23
2019-05-15T08:52:00.000Z,23
2019-05-15T08:53:00.000Z,23
2019-05-15T08:54:00.000Z,23
2019-05-15T08:55:00.000Z,23
2019-05-15T08:57:46.000Z,23
2019-05-15T08:58:46.000Z,23
2019-05-15T08:59:46.000Z,23
2019-05-15T09:00:46.000Z,23
2019-05-15T09:01:46.000Z,23
2019-05-15T09:03:46.000Z,23
2019-05-15T09:04:46.000Z,23
2019-05-15T09:05:46.000Z,23
2019-05-15T09:06:46.000Z,23
2019-05-15T09:07:46.000Z,23
2019-05-15T09:08:46.000Z,23
2019-05-15T09:09:46.000Z,23
2019-05-15T09:10:46.000Z,23
2019-05-15T09:11:46.000Z,22
2019-05-15T09:12:46.000Z,22
2019-05-15T09:14:46.000Z,22
2019-05-15T09:15:46.000Z,22
2019-05-15T09:16:46.000Z,22
2019-05-15T09:17:46.000Z,22
2019-05-15T09:18:46.000Z,22
2019-05-15T09:19:46.000Z,22
2019-05-15T09:20:46.000Z,22
2019-05-15T09:21:46.000Z,22
2019-05-15T09:22:46.000Z,21
2019-05-15T09:23:46.000Z,22
2019-05-15T09:25:46.000Z,22
2019-05-15T09:26:46.000Z,22
2019-05-15T09:27:46.000Z,22
2019-05-15T09:28:46.000Z,22
2019-05-15T09:29:46.000Z,22
2019-05-15T09:30:46.000Z,22
2019-05-15T09:32:46.000Z,22
2019-05-15T09:33:46.000Z,22
2019-05-15T09:34:46.000Z,22
2019-05-15T09:36:46.000Z,22
2019-05-15T09:37:46.000Z,22
2019-05-15T09:38:46.000Z,23
2019-05-15T09:39:46.000Z,22
2019-05-15T09:40:46.000Z,23
2019-05-15T09:42:46.000Z,23
2019-05-15T09:43:46.000Z,23
2019-05-15T09:45:46.000Z,23
2019-05-15T09:46:46.000Z,23
2019-05-15T09:47:46.000Z,23
2019-05-15T09:48:46.000Z,23
2019-05-15T09:49:46.000Z,23
2019-05-15T09:50:46.000Z,23
2019-05-15T09:51:46.000Z,23
2019-05-15T09:52:46.000Z,23
2019-05-15T09:53:46.000Z,23
2019-05-15T09:54:46.000Z,23
2019-05-15T09:55:46.000Z,23
2019-05-15T09:56:46.000Z,23
2019-05-15T09:57:46.000Z,23
2019-05-15T09:58:46.000Z,23
2019-05-15T09:59:46.000Z,23
2019-05-15T10:00:46.000Z,23
2019-05-15T10:01:46.000Z,23
2019-05-15T10:02:46.000Z,23
2019-05-15T10:03:46.000Z,23
2019-05-15T10:04:46.000Z,23
2019-05-15T10:05:46.000Z,23
2019-05-15T10:06:46.000Z,23
2019-05-15T10:07:46.000Z,23
2019-05-15T10:08:46.000Z,23
2019-05-15T10:09:46.000Z,23
2019-05-15T10:10:46.000Z,23
2019-05-15T10:11:46.000Z,23
2019-05-15T10:12:46.000Z,23
2019-05-15T10:13:46.000Z,23
2019-05-15T10:14:46.000Z,23
2019-05-15T10:15:46.000Z,23
2019-05-15T10:16:46.000Z,23
2019-05-15T10:17:46.000Z,23
2019-05-15T10:18:46.000Z,23
2019-05-15T10:19:46.000Z,23
2019-05-15T10:20:46.000Z,23
2019-05-15T10:21:46.000Z,23
2019-05-15T10:22:46.000Z,23
2019-05-15T10:23:46.000Z,23
2019-05-15T10:24:46.000Z,23
2019-05-15T10:25:46.000Z,23
2019-05-15T10:26:46.000Z,23
2019-05-15T10:27:46.000Z,23
2019-05-15T10:29:46.000Z,23
2019-05-15T10:30:46.000Z,23
2019-05-15T10:31:46.000Z,23
2019-05-15T10:32:46.000Z,23
2019-05-15T10:34:46.000Z,23
2019-05-15T10:35:46.000Z,23
2019-05-15T10:36:46.000Z,23
2019-05-15T10:37:46.000Z,23
2019-05-15T10:38:46.000Z,23
2019-05-15T10:39:46.000Z,23
2019-05-15T10:40:46.000Z,23
2019-05-15T10:41:46.000Z,23
2019-05-15T10:42:47.000Z,23
2019-05-15T10:43:47.000Z,23
2019-05-15T10:44:47.000Z,23
2019-05-15T10:45:47.000Z,23
2019-05-15T10:46:47.000Z,23
2019-05-15T10:47:47.000Z,23
2019-05-15T10:48:47.000Z,23
2019-05-15T10:49:47.000Z,23
2019-05-15T10:50:47.000Z,23
2019-05-15T10:51:47.000Z,23
2019-05-15T10:53:47.000Z,23
2019-05-15T10:54:47.000Z,23
2019-05-15T10:55:47.000Z,23
2019-05-15T10:56:47.000Z,23
2019-05-15T10:57:47.000Z,23
2019-05-15T10:58:47.000Z,23
2019-05-15T10:59:47.000Z,23
2019-05-15T11:00:47.000Z,23
2019-05-15T11:01:47.000Z,23
2019-05-15T11:02:47.000Z,23
2019-05-15T11:03:47.000Z,23
2019-05-15T11:04:47.000Z,23
2019-05-15T11:06:47.000Z,23
2019-05-15T11:07:47.000Z,23
2019-05-15T11:08:47.000Z,23
2019-05-15T11:10:47.000Z,23
2019-05-15T11:11:47.000Z,23
2019-05-15T11:12:47.000Z,23
2019-05-15T11:13:47.000Z,23
2019-05-15T11:14:47.000Z,23
2019-05-15T11:16:47.000Z,23
2019-05-15T11:17:47.000Z,23
2019-05-15T11:18:47.000Z,23
2019-05-15T11:19:47.000Z,23
2019-05-15T11:20:47.000Z,23
2019-05-15T11:21:47.000Z,23
2019-05-15T11:22:47.000Z,23
2019-05-15T11:23:47.000Z,23
2019-05-15T11:24:47.000Z,23
2019-05-15T11:25:47.000Z,23
2019-05-15T11:26:47.000Z,23
2019-05-15T11:27:47.000Z,23
2019-05-15T11:28:47.000Z,23
2019-05-15T11:29:47.000Z,23
2019-05-15T11:30:47.000Z,23
2019-05-15T11:31:47.000Z,23
2019-05-15T11:32:47.000Z,23
2019-05-15T11:33:47.000Z,23
2019-05-15T11:34:47.000Z,23
2019-05-15T11:36:47.000Z,23
2019-05-15T11:37:47.000Z,23
2019-05-15T11:38:47.000Z,22
2019-05-15T11:39:47.000Z,22
2019-05-15T11:40:47.000Z,22
2019-05-15T11:41:47.000Z,22
2019-05-15T11:42:47.000Z,21
2019-05-15T11:43:47.000Z,21
2019-05-15T11:44:47.000Z,21
2019-05-15T11:45:47.000Z,21
2019-05-15T11:46:47.000Z,21
2019-05-15T11:47:47.000Z,21
2019-05-15T11:48:47.000Z,21
2019-05-15T11:49:47.000Z,21
2019-05-15T11:50:47.000Z,21
2019-05-15T11:51:47.000Z,21
2019-05-15T11:52:47.000Z,21
2019-05-15T11:53:47.000Z,21
2019-05-15T11:54:47.000Z,21
2019-05-15T11:55:47.000Z,21
2019-05-15T11:56:47.000Z,21
2019-05-15T11:57:47.000Z,21
2019-05-15T11:59:47.000Z,21
2019-05-15T12:00:47.000Z,21
2019-05-15T12:01:47.000Z,21
2019-05-15T12:02:47.000Z,21
2019-05-15T12:03:47.000Z,22
2019-05-15T12:04:47.000Z,22
2019-05-15T12:05:47.000Z,22
2019-05-15T12:06:47.000Z,22
2019-05-15T12:07:47.000Z,22
2019-05-15T12:08:47.000Z,22
2019-05-15T12:09:47.000Z,22
2019-05-15T12:10:47.000Z,22
2019-05-15T12:11:47.000Z,22
2019-05-15T12:12:47.000Z,22
2019-05-15T12:13:47.000Z,22
2019-05-15T12:14:47.000Z,22
2019-05-15T12:15:47.000Z,22
2019-05-15T12:16:47.000Z,22
2019-05-15T12:17:47.000Z,22
2019-05-15T12:19:47.000Z,22
2019-05-15T12:20:47.000Z,22
2019-05-15T12:21:47.000Z,22
2019-05-15T13:05:14.000Z,23
2019-05-15T13:06:14.000Z,23
2019-05-15T13:07:14.000Z,23
2019-05-15T13:08:14.000Z,23
2019-05-15T13:09:14.000Z,23
2019-05-15T13:10:14.000Z,23
2019-05-15T13:12:14.000Z,23
2019-05-15T13:13:14.000Z,23
2019-05-15T13:15:14.000Z,23
2019-05-15T13:16:14.000Z,23
2019-05-15T13:17:14.000Z,23
2019-05-15T13:18:14.000Z,23
2019-05-15T13:19:14.000Z,23
2019-05-15T13:20:14.000Z,23
2019-05-15T13:21:14.000Z,23
2019-05-15T13:22:14.000Z,23
2019-05-15T13:23:14.000Z,23
2019-05-15T13:24:14.000Z,23
2019-05-15T13:25:14.000Z,23
2019-05-15T13:27:14.000Z,23
2019-05-15T13:28:14.000Z,23
2019-05-15T13:29:14.000Z,22
2019-05-15T13:30:14.000Z,22
2019-05-15T13:31:14.000Z,22
2019-05-15T13:32:14.000Z,22
2019-05-15T13:33:14.000Z,22
2019-05-15T13:34:14.000Z,22
2019-05-15T13:35:14.000Z,22
2019-05-15T13:36:14.000Z,22
2019-05-15T13:37:14.000Z,22
2019-05-15T13:38:14.000Z,22
2019-05-15T13:39:14.000Z,22
2019-05-15T13:40:14.000Z,22
2019-05-15T13:41:14.000Z,22
2019-05-15T13:42:14.000Z,22
2019-05-15T13:43:14.000Z,22
2019-05-15T13:44:14.000Z,22
2019-05-15T13:45:14.000Z,22
2019-05-15T13:46:14.000Z,22
2019-05-15T13:47:14.000Z,22
2019-05-15T13:48:14.000Z,22
2019-05-15T13:49:14.000Z,22
2019-05-15T13:50:14.000Z,22
2019-05-15T13:51:14.000Z,22
2019-05-15T13:52:14.000Z,22
2019-05-15T13:53:14.000Z,22
2019-05-15T13:54:14.000Z,22
2019-05-15T13:55:14.000Z,22
2019-05-15T13:56:14.000Z,22
2019-05-15T13:58:14.000Z,22
2019-05-15T13:59:14.000Z,23
2019-05-15T14:00:14.000Z,23
2019-05-15T14:01:14.000Z,23
2019-05-15T14:02:14.000Z,23
2019-05-15T14:03:14.000Z,23
2019-05-15T14:04:14.000Z,23
2019-05-15T14:05:14.000Z,23
2019-05-15T14:06:14.000Z,23
2019-05-15T14:07:14.000Z,23
2019-05-15T14:08:15.000Z,23
2019-05-15T14:09:24.000Z,23
2019-05-15T14:10:24.000Z,23
2019-05-15T14:11:24.000Z,23
2019-05-15T14:12:24.000Z,23
2019-05-15T14:13:24.000Z,23
2019-05-15T14:14:24.000Z,23
2019-05-15T14:15:24.000Z,23
2019-05-15T14:16:24.000Z,23
2019-05-15T14:17:24.000Z,23
2019-05-15T14:18:24.000Z,23
2019-05-15T14:19:24.000Z,23
2019-05-15T14:20:24.000Z,23
2019-05-15T14:21:24.000Z,23
2019-05-15T14:22:24.000Z,23
2019-05-15T14:23:24.000Z,23
2019-05-15T14:24:24.000Z,23
2019-05-15T14:25:24.000Z,23
2019-05-15T14:26:24.000Z,23
2019-05-15T14:27:24.000Z,23
2019-05-15T14:28:24.000Z,23
2019-05-15T14:29:24.000Z,23
2019-05-15T14:30:24.000Z,23
2019-05-15T14:31:24.000Z,23
2019-05-15T14:32:24.000Z,23
2019-05-15T14:33:24.000Z,23
2019-05-15T14:34:24.000Z,23
2019-05-15T14:35:24.000Z,23
2019-05-15T14:36:24.000Z,23
2019-05-15T14:37:24.000Z,23
2019-05-15T14:38:24.000Z,24
2019-05-15T14:39:24.000Z,24
2019-05-15T14:40:24.000Z,24
2019-05-15T14:41:24.000Z,24
2019-05-15T14:42:24.000Z,24
2019-05-15T14:44:24.000Z,24
2019-05-15T14:45:24.000Z,24
2019-05-15T14:47:24.000Z,24
2019-05-15T14:48:24.000Z,24
2019-05-15T14:49:24.000Z,24
2019-05-15T14:50:24.000Z,24
2019-05-15T14:51:24.000Z,24
2019-05-15T14:52:24.000Z,24
2019-05-15T14:53:24.000Z,24
2019-05-15T14:54:24.000Z,24
2019-05-15T14:55:24.000Z,24
2019-05-15T14:56:24.000Z,24
2019-05-15T14:58:24.000Z,24
2019-05-15T14:59:24.000Z,24
2019-05-15T15:00:24.000Z,24
2019-05-15T15:01:24.000Z,24
2019-05-15T15:02:24.000Z,24
2019-05-15T15:03:24.000Z,24
2019-05-15T15:04:24.000Z,24
2019-05-15T15:05:24.000Z,24
2019-05-15T15:06:24.000Z,24
2019-05-15T15:07:24.000Z,24
2019-05-15T15:08:24.000Z,24
2019-05-15T15:09:24.000Z,24
2019-05-15T15:10:24.000Z,24
2019-05-15T15:11:24.000Z,24
2019-05-15T15:12:24.000Z,24
2019-05-15T15:14:24.000Z,24
2019-05-15T15:15:24.000Z,24
2019-05-15T15:16:24.000Z,24
2019-05-15T15:17:24.000Z,24
2019-05-15T15:18:24.000Z,24
2019-05-15T15:19:24.000Z,24
2019-05-15T15:20:24.000Z,24
2019-05-15T15:22:24.000Z,24
2019-05-15T15:23:24.000Z,25
2019-05-15T15:24:24.000Z,24
2019-05-15T15:25:24.000Z,24
2019-05-15T15:26:24.000Z,24
2019-05-15T15:27:24.000Z,24
2019-05-15T15:29:24.000Z,24
2019-05-15T15:30:24.000Z,24
2019-05-15T15:31:24.000Z,24
2019-05-15T15:32:24.000Z,24
2019-05-15T15:33:24.000Z,25
2019-05-15T15:34:24.000Z,24
2019-05-15T15:35:24.000Z,25
2019-05-15T15:36:24.000Z,25
2019-05-15T15:37:24.000Z,25
2019-05-15T15:38:24.000Z,24
2019-05-15T15:39:24.000Z,24
2019-05-15T15:40:24.000Z,24
2019-05-15T15:41:24.000Z,24
2019-05-15T15:42:24.000Z,25
2019-05-15T15:43:24.000Z,25
2019-05-15T15:45:24.000Z,25
2019-05-15T15:46:24.000Z,25
2019-05-15T15:47:24.000Z,24
2019-05-15T15:49:24.000Z,24
2019-05-15T15:51:24.000Z,24
2019-05-15T15:52:24.000Z,24
2019-05-15T15:53:24.000Z,24
2019-05-15T15:54:24.000Z,24
2019-05-15T15:55:24.000Z,24
2019-05-15T15:56:24.000Z,24
2019-05-15T15:57:24.000Z,24
2019-05-15T15:58:24.000Z,24
2019-05-15T15:59:24.000Z,24
2019-05-15T16:00:24.000Z,24
2019-05-15T16:01:24.000Z,24
2019-05-15T16:02:24.000Z,24
2019-05-15T16:03:24.000Z,24
2019-05-15T16:04:24.000Z,24
2019-05-15T16:05:24.000Z,24
2019-05-15T16:06:24.000Z,24
2019-05-15T16:07:24.000Z,24
2019-05-15T16:08:24.000Z,24
2019-05-15T16:09:24.000Z,24
2019-05-15T16:10:24.000Z,24
2019-05-15T16:11:24.000Z,24
2019-05-15T16:12:24.000Z,24
2019-05-15T16:13:24.000Z,24
2019-05-15T16:14:24.000Z,24
2019-05-15T16:15:24.000Z,24
2019-05-15T16:16:24.000Z,24
2019-05-15T16:18:24.000Z,24
2019-05-15T16:19:24.000Z,24
2019-05-15T16:20:24.000Z,24
2019-05-15T16:21:24.000Z,24
2019-05-15T16:22:24.000Z,24
2019-05-15T16:23:24.000Z,24
2019-05-15T16:24:24.000Z,24
2019-05-15T16:25:24.000Z,24
2019-05-15T16:26:24.000Z,24
2019-05-15T16:27:24.000Z,24
2019-05-15T16:28:24.000Z,24
2019-05-15T16:29:24.000Z,24
2019-05-15T16:30:24.000Z,24
2019-05-15T16:31:24.000Z,24
2019-05-15T16:32:24.000Z,24
2019-05-15T16:33:24.000Z,24
2019-05-15T16:34:24.000Z,25
2019-05-15T16:35:24.000Z,25
2019-05-15T16:36:24.000Z,25
2019-05-15T16:37:24.000Z,24
2019-05-15T16:38:24.000Z,24
2019-05-15T16:41:49.000Z,24
2019-05-15T16:42:49.000Z,24
2019-05-15T16:43:49.000Z,24
2019-05-15T16:44:49.000Z,24
2019-05-15T16:45:49.000Z,25
2019-05-15T16:46:49.000Z,24
2019-05-15T16:47:49.000Z,25
2019-05-15T16:48:49.000Z,25
2019-05-15T16:49:49.000Z,25
2019-05-15T16:50:49.000Z,25
2019-05-15T16:51:49.000Z,25
2019-05-15T16:52:49.000Z,25
2019-05-15T16:53:49.000Z,25